Time;durP1;ratioP1;P1;durP2;ratioP2;P2;SDS_P1;SDS_P2;PMS_P1;PMS_P2;Temp;Humidity;BMP_temperature;BMP_pressure;BME280_temperature;BME280_humidity;BME280_pressure;Samples;Min_cycle;Max_cycle;Signal;HPM_P1;HPM_P2
2022/06/11 00:01:36;;;;;;;16.70;9.90;;;;;;;15.95;92.15;100779.34;107476;1246;73908;-60
2022/06/11 00:04:12;;;;;;;12.00;8.40;;;;;;;15.85;91.26;100774.72;107426;1247;60897;-60
2022/06/11 00:06:47;;;;;;;12.40;9.30;;;;;;;15.77;91.14;100781.48;107543;1246;61411;-60
2022/06/11 00:09:19;;;;;;;12.80;9.60;;;;;;;15.69;91.49;100780.87;107551;1246;72516;-59
2022/06/11 00:11:51;;;;;;;12.00;10.00;;;;;;;15.66;92.88;100780.14;107498;1246;72269;-60
2022/06/11 00:14:30;;;;;;;12.50;10.00;;;;;;;15.62;93.77;100776.19;107411;1249;69113;-60
2022/06/11 00:17:01;;;;;;;12.30;10.20;;;;;;;15.59;93.78;100781.37;107589;1246;72246;-60
2022/06/11 00:19:30;;;;;;;13.70;10.60;;;;;;;15.58;93.68;100780.81;107606;1246;63286;-59
2022/06/11 00:22:00;;;;;;;13.70;10.20;;;;;;;15.64;94.02;100786.04;107666;1246;59795;-61
2022/06/11 00:24:29;;;;;;;11.50;9.90;;;;;;;15.69;93.41;100780.29;107550;1247;71711;-61
2022/06/11 00:26:59;;;;;;;12.10;9.50;;;;;;;15.67;92.33;100782.13;107593;1246;70324;-62
2022/06/11 00:29:32;;;;;;;12.10;9.90;;;;;;;15.63;91.77;100783.48;107504;1247;68646;-60
2022/06/11 00:32:01;;;;;;;11.30;10.10;;;;;;;15.53;92.91;100784.06;107498;1247;73883;-60
2022/06/11 00:34:30;;;;;;;14.00;11.00;;;;;;;15.47;93.66;100784.55;107529;1246;62631;-58
2022/06/11 00:36:59;;;;;;;14.80;10.80;;;;;;;15.49;94.49;100784.09;107499;1246;61466;-62
2022/06/11 00:39:31;;;;;;;13.40;10.20;;;;;;;15.54;94.32;100788.02;107430;1246;71841;-59
2022/06/11 00:42:17;;;;;;;11.80;9.60;;;;;;;15.60;93.69;100792.48;107439;1246;70715;-61
2022/06/11 00:44:46;;;;;;;11.60;9.70;;;;;;;15.60;93.53;100793.95;107455;1247;69930;-60
2022/06/11 00:47:20;;;;;;;20.70;9.80;;;;;;;15.57;93.15;100796.11;107364;1247;74436;-60
2022/06/11 00:49:53;;;;;;;10.80;9.10;;;;;;;15.49;92.50;100797.59;107367;1246;60889;-60
2022/06/11 00:52:42;;;;;;;10.40;9.20;;;;;;;15.39;92.61;100799.58;107429;1246;61267;-60
2022/06/11 00:55:21;;;;;;;11.60;8.90;;;;;;;15.34;92.87;100802.79;107437;1246;72769;-60
2022/06/11 00:58:02;;;;;;;11.90;9.00;;;;;;;15.31;92.96;100803.94;107363;1247;72237;-58
2022/06/11 01:00:48;;;;;;;12.00;9.10;;;;;;;15.29;93.05;100804.69;107471;1246;68250;-60
2022/06/11 01:03:24;;;;;;;12.70;9.30;;;;;;;15.27;93.20;100802.05;107438;1246;71639;-60
2022/06/11 01:06:06;;;;;;;12.70;9.60;;;;;;;15.23;93.04;100800.29;109627;1246;63959;-61
2022/06/11 01:09:06;;;;;;;12.30;8.60;;;;;;;15.18;92.90;100797.26;107373;1246;59861;-60
2022/06/11 01:12:05;;;;;;;11.30;9.20;;;;;;;15.10;92.82;100800.09;107417;1246;72065;-60
2022/06/11 01:14:49;;;;;;;12.00;9.00;;;;;;;15.07;93.31;100797.52;107456;1246;70370;-58
2022/06/11 01:17:49;;;;;;;11.30;8.90;;;;;;;15.03;93.40;100798.06;107463;1246;68927;-60
2022/06/11 01:20:40;;;;;;;14.90;8.80;;;;;;;14.97;93.42;100800.55;107421;1246;73873;-60
2022/06/11 01:23:17;;;;;;;10.30;9.20;;;;;;;14.88;93.02;100797.63;107359;1246;62745;-60
2022/06/11 01:26:02;;;;;;;24.80;9.20;;;;;;;14.81;93.21;100802.08;107414;1248;59346;-60
2022/06/11 01:29:08;;;;;;;13.30;9.00;;;;;;;14.78;93.47;100801.71;107460;1246;71266;-60
2022/06/11 01:31:46;;;;;;;12.30;9.60;;;;;;;14.74;93.46;100796.26;107427;1246;70953;-63
2022/06/11 01:34:42;;;;;;;15.20;9.90;;;;;;;14.73;93.54;100795.98;107541;1246;71169;-63
2022/06/11 01:38:03;;;;;;;15.40;9.90;;;;;;;14.70;93.40;100797.34;107279;1249;74140;-62
2022/06/11 01:40:56;;;;;;;12.00;9.30;;;;;;;14.63;93.22;100804.48;107166;1249;62926;-63
2022/06/11 01:43:31;;;;;;;;;;;;;;;14.54;92.25;100803.65;107382;1246;59290;-63
2022/06/11 01:46:23;;;;;;;12.70;9.00;;;;;;;14.42;92.45;100798.38;107402;1246;71985;-63
2022/06/11 01:48:59;;;;;;;10.30;8.80;;;;;;;14.33;93.43;100795.79;107367;1249;71747;-62
2022/06/11 01:51:37;;;;;;;11.90;9.60;;;;;;;14.29;93.67;100797.59;107388;1246;69782;-61
2022/06/11 01:54:29;;;;;;;12.80;9.40;;;;;;;14.27;94.42;100797.55;107298;1248;72333;-61
2022/06/11 01:57:19;;;;;;;11.10;9.00;;;;;;;14.25;94.12;100803.35;107486;1246;60616;-62
2022/06/11 01:59:50;;;;;;;11.40;9.40;;;;;;;14.20;93.70;100806.20;107339;1246;60913;-65
2022/06/11 02:02:55;;;;;;;11.30;9.40;;;;;;;14.23;93.74;100804.92;107344;1247;73288;-59
2022/06/11 02:05:50;;;;;;;14.30;9.60;;;;;;;14.24;93.92;100806.40;107379;1246;71271;-59
2022/06/11 02:08:44;;;;;;;13.30;9.80;;;;;;;14.22;93.76;100806.71;107163;1249;68370;-60
2022/06/11 02:11:36;;;;;;;12.30;9.70;;;;;;;14.18;93.77;100808.11;107421;1246;73615;-61
2022/06/11 02:14:32;;;;;;;15.40;10.00;;;;;;;14.15;94.07;100803.89;107493;1246;62508;-62
2022/06/11 02:17:19;;;;;;;16.00;10.00;;;;;;;14.12;94.14;100802.91;107419;1246;59295;-59
2022/06/11 02:19:55;;;;;;;12.20;9.10;;;;;;;14.10;94.01;100808.69;107518;1247;72127;-58
2022/06/11 02:22:39;;;;;;;12.40;9.70;;;;;;;14.09;93.87;100809.67;107452;1246;70572;-60
2022/06/11 02:25:27;;;;;;;11.90;9.80;;;;;;;14.06;94.10;100806.55;107449;1246;69529;-61
2022/06/11 02:28:01;;;;;;;12.10;10.20;;;;;;;14.04;93.93;100810.17;107348;1246;74331;-60
2022/06/11 02:30:32;;;;;;;12.00;10.50;;;;;;;14.01;93.71;100812.76;107316;1246;63902;-59
2022/06/11 02:33:01;;;;;;;12.10;10.30;;;;;;;14.00;94.55;100817.33;107436;1247;61756;-58
2022/06/11 02:35:46;;;;;;;12.60;10.90;;;;;;;13.99;94.81;100813.29;107441;1246;71676;-59
2022/06/11 02:38:19;;;;;;;11.50;10.30;;;;;;;14.02;94.38;100819.14;107396;1246;72038;-59
2022/06/11 02:40:56;;;;;;;14.40;10.30;;;;;;;14.01;94.11;100818.29;107405;1247;68280;-60
2022/06/11 02:43:25;;;;;;;11.60;9.50;;;;;;;14.01;94.07;100819.70;107453;1246;73595;-60
2022/06/11 02:45:54;;;;;;;13.40;10.40;;;;;;;14.08;93.58;100818.33;107486;1246;61483;-60
2022/06/11 02:48:24;;;;;;;12.60;9.60;;;;;;;14.12;93.32;100816.21;107558;1245;61236;-63
2022/06/11 02:50:53;;;;;;;13.40;10.30;;;;;;;14.13;93.28;100818.70;107431;1247;73402;-60
2022/06/11 02:53:22;;;;;;;15.10;10.50;;;;;;;14.14;93.43;100818.80;107507;1246;70205;-60
2022/06/11 02:55:51;;;;;;;14.30;10.00;;;;;;;14.15;93.26;100822.98;107478;1246;68034;-59
2022/06/11 02:58:20;;;;;;;11.50;9.80;;;;;;;14.14;93.53;100822.34;107513;1246;71966;-58
2022/06/11 03:00:49;;;;;;;13.70;10.60;;;;;;;14.17;93.71;100816.78;107479;1246;62947;-57
2022/06/11 03:03:18;;;;;;;17.20;11.50;;;;;;;14.22;93.41;100817.06;107530;1247;61052;-57
2022/06/11 03:05:47;;;;;;;14.80;10.40;;;;;;;14.24;93.08;100819.91;107511;1247;73695;-60
2022/06/11 03:08:15;;;;;;;17.90;10.00;;;;;;;14.24;93.13;100820.39;107524;1246;73204;-59
2022/06/11 03:10:44;;;;;;;12.50;10.30;;;;;;;14.27;92.84;100823.96;107462;1247;70541;-60
2022/06/11 03:13:13;;;;;;;13.50;10.90;;;;;;;14.28;93.00;100816.72;107513;1247;72369;-60
2022/06/11 03:15:42;;;;;;;14.30;11.40;;;;;;;14.34;93.96;100821.14;107560;1246;60720;-60
2022/06/11 03:18:12;;;;;;;15.30;12.00;;;;;;;14.41;94.34;100818.08;107492;1246;61253;-60
2022/06/11 03:20:40;;;;;;;13.00;11.00;;;;;;;14.49;94.44;100820.73;107400;1247;74476;-60
2022/06/11 03:23:10;;;;;;;13.10;11.30;;;;;;;14.55;93.95;100822.61;107402;1246;72518;-60
2022/06/11 03:25:40;;;;;;;14.10;11.30;;;;;;;14.63;93.36;100824.08;107366;1246;69789;-59
2022/06/11 03:28:14;;;;;;;18.70;11.60;;;;;;;14.69;92.60;100827.96;107411;1246;73597;-61
2022/06/11 03:30:44;;;;;;;15.00;12.30;;;;;;;14.73;92.83;100829.30;107436;1247;63324;-60
2022/06/11 03:33:15;;;;;;;;;;;;;;;14.80;93.24;100825.72;107412;1246;61658;-61
2022/06/11 03:35:46;;;;;;;15.20;12.50;;;;;;;14.90;93.28;100825.05;107186;1248;73700;-61
2022/06/11 03:38:16;;;;;;;13.70;12.30;;;;;;;15.02;93.81;100823.09;107273;1246;73111;-61
2022/06/11 03:40:45;;;;;;;17.70;13.00;;;;;;;15.11;93.48;100826.16;107336;1246;69770;-61
2022/06/11 03:43:14;;;;;;;15.10;13.10;;;;;;;15.20;92.54;100824.64;107338;1246;71511;-61
2022/06/11 03:45:43;;;;;;;16.50;12.50;;;;;;;15.28;92.73;100826.87;107303;1246;60522;-61
2022/06/11 03:48:12;;;;;;;13.00;11.60;;;;;;;15.36;92.93;100821.79;106930;1249;58980;-61
2022/06/11 03:50:41;;;;;;;15.10;10.70;;;;;;;15.47;92.28;100823.00;107361;1246;72242;-62
2022/06/11 03:53:12;;;;;;;11.90;10.50;;;;;;;15.60;91.04;100821.63;107363;1247;69595;-62
2022/06/11 03:55:43;;;;;;;21.10;11.30;;;;;;;15.68;90.77;100820.44;107289;1248;68773;-62
2022/06/11 03:58:13;;;;;;;12.70;10.20;;;;;;;15.74;90.32;100825.30;107346;1248;71216;-60
2022/06/11 04:03:30;;;;;;;15.80;11.50;;;;;;;15.79;89.89;100829.98;107465;1247;59616;-60
2022/06/11 04:06:00;;;;;;;16.10;11.10;;;;;;;15.77;89.95;100827.48;107551;1247;72371;-59
2022/06/11 04:08:30;;;;;;;14.50;11.30;;;;;;;15.79;89.83;100824.90;107577;1246;70382;-62
2022/06/11 04:11:01;;;;;;;17.60;11.70;;;;;;;15.80;89.87;100823.15;107487;1246;69095;-62
2022/06/11 04:13:32;;;;;;;15.90;12.30;;;;;;;15.85;89.61;100825.83;107341;1247;74040;-62
2022/06/11 04:16:02;;;;;;;15.10;10.60;;;;;;;15.88;89.75;100828.27;107254;1249;61151;-60
2022/06/11 04:18:44;;;;;;;16.20;11.60;;;;;;;15.88;89.81;100826.83;107336;1249;59770;-59
2022/06/11 04:21:14;;;;;;;16.10;12.00;;;;;;;15.89;90.44;100831.42;107454;1249;73643;-61
2022/06/11 04:23:46;;;;;;;17.60;12.70;;;;;;;15.87;90.70;100829.75;107458;1247;71448;-63
2022/06/11 04:26:21;;;;;;;16.00;12.30;;;;;;;15.93;91.03;100834.25;107537;1246;69065;-61
2022/06/11 04:28:50;;;;;;;15.80;11.00;;;;;;;16.07;90.71;100833.65;107507;1247;73959;-63
2022/06/11 04:31:19;;;;;;;17.70;12.50;;;;;;;16.28;90.03;100837.98;107502;1246;63809;-62
2022/06/11 04:33:48;;;;;;;18.30;12.30;;;;;;;16.29;89.63;100838.31;107450;1248;60410;-64
2022/06/11 04:36:20;;;;;;;12.30;9.80;;;;;;;16.48;89.40;100838.58;107497;1247;71946;-66
2022/06/11 04:38:50;;;;;;;15.30;11.10;;;;;;;16.61;88.59;100839.09;107556;1247;70466;-63
2022/06/11 04:41:20;;;;;;;12.30;10.30;;;;;;;16.69;88.22;100841.48;107472;1246;69772;-63
2022/06/11 04:43:50;;;;;;;11.10;9.90;;;;;;;16.75;87.33;100848.65;107402;1247;72662;-64
2022/06/11 04:46:20;;;;;;;15.70;12.30;;;;;;;16.77;87.40;100849.89;107243;1246;63539;-67
2022/06/11 04:48:49;;;;;;;12.50;10.20;;;;;;;16.75;87.61;100849.24;107487;1247;61064;-61
2022/06/11 04:51:19;;;;;;;15.50;11.50;;;;;;;16.78;87.84;100850.89;106703;1247;740165;-64
2022/06/11 04:53:48;;;;;;;13.20;11.50;;;;;;;16.71;88.55;100853.98;107549;1246;72675;-82
2022/06/11 04:56:24;;;;;;;12.40;10.40;;;;;;;16.83;88.29;100856.36;107488;1246;70981;-74
2022/06/11 04:58:54;;;;;;;18.40;12.30;;;;;;;16.89;88.29;100860.13;107523;1248;71576;-74
2022/06/11 05:01:30;;;;;;;19.40;12.50;;;;;;;16.97;88.28;100860.25;107456;1247;62805;-75
2022/06/11 05:03:59;;;;;;;14.10;11.90;;;;;;;17.18;87.65;100860.83;107690;1246;60890;-71
2022/06/11 05:06:32;;;;;;;16.50;12.70;;;;;;;17.30;87.42;100862.38;107343;1246;72283;-74
2022/06/11 05:09:01;;;;;;;16.80;12.30;;;;;;;17.44;87.44;100865.66;107890;1247;72541;-72
2022/06/11 05:11:30;;;;;;;17.90;12.30;;;;;;;17.66;86.86;100863.02;108491;1246;70931;-69
2022/06/11 05:13:59;;;;;;;15.00;10.90;;;;;;;17.83;86.13;100861.65;107928;1246;74020;-74
2022/06/11 05:16:28;;;;;;;12.60;10.20;;;;;;;17.99;85.62;100860.03;107888;1248;59081;-73
2022/06/11 05:18:57;;;;;;;16.50;11.60;;;;;;;18.21;85.03;100856.56;107826;1246;60506;-73
2022/06/11 05:21:27;;;;;;;15.60;11.70;;;;;;;18.35;84.52;100855.82;107634;1249;62661;-73
2022/06/11 05:23:55;;;;;;;14.80;11.30;;;;;;;18.55;84.16;100857.48;107884;1244;70580;-73
2022/06/11 05:26:35;;;;;;;12.80;10.00;;;;;;;18.68;83.43;100859.55;107706;1247;59775;-71
2022/06/11 05:29:06;;;;;;;12.60;10.70;;;;;;;18.81;82.79;100861.13;107651;1246;73046;-74
2022/06/11 05:31:35;;;;;;;15.30;12.10;;;;;;;18.92;82.84;100862.81;107427;1246;62601;-71
2022/06/11 05:34:04;;;;;;;14.00;10.40;;;;;;;19.04;82.68;100858.05;107635;1247;61645;-72
2022/06/11 05:36:33;;;;;;;12.90;10.60;;;;;;;19.18;81.99;100860.19;107722;1246;74197;-74
2022/06/11 05:39:02;;;;;;;15.20;10.50;;;;;;;19.37;81.85;100855.21;107767;1247;71270;-75
2022/06/11 05:41:31;;;;;;;16.90;11.20;;;;;;;19.56;81.41;100856.30;107748;1248;70338;-75
2022/06/11 05:43:59;;;;;;;14.30;11.00;;;;;;;19.90;80.24;100858.61;107769;1246;74395;-74
2022/06/11 05:46:28;;;;;;;16.30;10.10;;;;;;;20.03;79.55;100849.80;107508;1249;58226;-73
2022/06/11 05:49:03;;;;;;;11.20;8.50;;;;;;;20.33;79.64;100854.23;107588;1247;59051;-74
2022/06/11 05:51:47;;;;;;;9.30;7.30;;;;;;;20.60;78.81;100849.85;107564;1249;63002;-71
2022/06/11 05:54:22;;;;;;;12.60;8.20;;;;;;;20.85;77.01;100852.45;107609;1248;72348;-75
2022/06/11 05:56:51;;;;;;;8.60;7.50;;;;;;;20.97;75.72;100854.30;107617;1249;62211;-77
2022/06/11 05:59:26;;;;;;;11.10;7.40;;;;;;;21.11;74.74;100852.53;107495;1249;63730;-79
2022/06/11 06:01:56;;;;;;;10.90;6.70;;;;;;;21.39;73.87;100858.54;107637;1246;61334;-76
2022/06/11 06:04:25;;;;;;;11.90;6.20;;;;;;;21.52;73.36;100862.66;107694;1246;58918;-77
2022/06/11 06:06:54;;;;;;;9.50;7.20;;;;;;;21.63;73.26;100867.38;107645;1246;61981;-77
2022/06/11 06:09:23;;;;;;;10.60;6.60;;;;;;;21.59;72.69;100865.59;107691;1246;71470;-77
2022/06/11 06:11:51;;;;;;;10.00;6.30;;;;;;;21.70;71.95;100867.45;107514;1246;70991;-70
2022/06/11 06:14:20;;;;;;;9.90;6.80;;;;;;;21.87;71.85;100866.50;107602;1247;63929;-74
2022/06/11 06:16:49;;;;;;;10.80;6.80;;;;;;;22.04;71.92;100867.41;107791;1247;61146;-83
2022/06/11 06:19:18;;;;;;;7.90;6.20;;;;;;;22.19;71.00;100869.88;107830;1246;60089;-76
2022/06/11 06:21:47;;;;;;;9.50;6.10;;;;;;;22.25;69.61;100875.33;107776;1246;63566;-78
2022/06/11 06:24:16;;;;;;;8.50;6.60;;;;;;;22.38;68.78;100878.60;107662;1246;60902;-76
2022/06/11 06:26:45;;;;;;;9.40;6.30;;;;;;;22.33;69.25;100869.65;107527;1247;70561;-78
2022/06/11 06:29:14;;;;;;;9.10;5.60;;;;;;;22.45;68.44;100873.96;107380;1247;74301;-78
2022/06/11 06:31:43;;;;;;;10.90;5.90;;;;;;;22.35;67.95;100870.10;107662;1246;60991;-77
2022/06/11 06:34:11;;;;;;;12.00;6.00;;;;;;;22.28;68.11;100869.52;107704;1246;60912;-78
2022/06/11 06:36:40;;;;;;;10.20;6.30;;;;;;;22.24;67.97;100866.67;107958;1249;63676;-81
2022/06/11 06:39:10;;;;;;;9.00;6.30;;;;;;;22.17;68.80;100865.80;108076;1246;60905;-79
2022/06/11 06:41:39;;;;;;;9.60;5.80;;;;;;;22.18;68.86;100868.55;107886;1246;70602;-79
2022/06/11 06:44:07;;;;;;;8.00;5.70;;;;;;;21.98;69.72;100868.39;107507;1247;75448;-81
2022/06/11 06:46:37;;;;;;;7.50;5.40;;;;;;;22.14;69.93;100868.28;107533;1247;62725;-80
2022/06/11 06:49:05;;;;;;;7.60;5.60;;;;;;;22.30;69.10;100868.75;107539;1247;61640;-79
2022/06/11 06:51:35;;;;;;;8.20;5.60;;;;;;;22.48;68.64;100872.05;107497;1248;62649;-82
2022/06/11 06:54:04;;;;;;;7.80;5.60;;;;;;;22.61;68.81;100870.97;107064;1248;72413;-82
2022/06/11 06:56:33;;;;;;;9.10;6.00;;;;;;;22.72;68.34;100868.91;107443;1246;60301;-82
2022/06/11 06:59:04;;;;;;;9.40;5.80;;;;;;;22.71;67.92;100865.29;107451;1248;73979;-81
2022/06/11 07:01:34;;;;;;;7.70;5.90;;;;;;;22.82;67.72;100864.80;107436;1246;59030;-76
2022/06/11 07:04:04;;;;;;;8.90;6.10;;;;;;;22.91;67.18;100866.33;107471;1247;58951;-80
2022/06/11 07:06:53;;;;;;;10.60;6.80;;;;;;;22.93;66.91;100871.06;107295;1249;62872;-81
2022/06/11 07:09:22;;;;;;;7.20;5.80;;;;;;;22.97;66.44;100866.48;107491;1247;72434;-79
2022/06/11 07:11:51;;;;;;;7.40;5.70;;;;;;;22.95;66.18;100865.06;107430;1248;70981;-81
2022/06/11 07:14:20;;;;;;;8.80;6.00;;;;;;;23.08;66.32;100862.33;107389;1247;74575;-73
2022/06/11 07:16:54;;;;;;;8.80;5.90;;;;;;;23.12;66.39;100864.14;107469;1247;63398;-83
2022/06/11 07:19:30;;;;;;;10.90;6.60;;;;;;;23.15;66.37;100864.98;107405;1247;59073;-81
2022/06/11 07:22:08;;;;;;;8.90;5.40;;;;;;;23.30;65.42;100860.45;107673;1247;73643;-81
2022/06/11 07:24:41;;;;;;;10.30;6.40;;;;;;;23.50;65.60;100853.26;107646;1247;72335;-83
2022/06/11 07:27:17;;;;;;;9.80;6.00;;;;;;;23.64;64.48;100848.19;107671;1246;70585;-80
2022/06/11 07:30:02;;;;;;;10.40;6.10;;;;;;;23.82;64.83;100847.48;107456;1247;74734;-82
2022/06/11 07:32:35;;;;;;;11.30;6.50;;;;;;;23.73;63.65;100841.91;107558;1248;61871;-80
2022/06/11 07:35:15;;;;;;;8.20;5.40;;;;;;;23.97;63.74;100841.72;107542;1247;59039;-80
2022/06/11 07:37:46;;;;;;;9.50;5.30;;;;;;;24.05;62.45;100847.72;107716;1246;72763;-77
2022/06/11 07:40:18;;;;;;;7.80;5.40;;;;;;;24.09;62.50;100840.84;107583;1247;63184;-81
2022/06/11 07:42:47;;;;;;;9.90;5.40;;;;;;;24.18;62.69;100840.23;107717;1247;69599;-80
2022/06/11 07:45:16;;;;;;;9.10;4.70;;;;;;;24.21;62.46;100840.17;107646;1247;73454;-81
2022/06/11 07:47:53;;;;;;;8.50;5.60;;;;;;;24.33;61.91;100836.17;107381;1247;61765;-83
2022/06/11 07:50:37;;;;;;;11.00;5.10;;;;;;;24.56;61.81;100838.98;107443;1246;62125;-78
2022/06/11 07:53:07;;;;;;;7.30;4.70;;;;;;;24.73;60.03;100837.27;107645;1247;63434;-84
2022/06/11 07:55:40;;;;;;;8.30;4.40;;;;;;;24.66;57.98;100848.10;107619;1247;69888;-76
2022/06/11 07:58:11;;;;;;;7.00;4.30;;;;;;;24.71;57.74;100844.58;107769;1246;60090;-81
2022/06/11 08:00:46;;;;;;;7.70;4.00;;;;;;;24.74;57.00;100840.61;107694;1248;73135;-78
2022/06/11 08:03:15;;;;;;;7.00;4.00;;;;;;;24.55;56.71;100837.78;107642;1248;62036;-80
2022/06/11 08:05:45;;;;;;;6.80;4.10;;;;;;;24.67;57.50;100837.86;107554;1250;58682;-77
2022/06/11 08:08:15;;;;;;;5.70;4.10;;;;;;;24.98;56.85;100838.08;107716;1246;72663;-83
2022/06/11 08:10:44;;;;;;;6.50;4.10;;;;;;;24.98;55.51;100843.02;107761;1246;61803;-84
2022/06/11 08:13:14;;;;;;;8.20;4.30;;;;;;;24.98;55.80;100846.92;107557;1249;60021;-75
2022/06/11 08:15:47;;;;;;;5.60;4.10;;;;;;;25.14;54.57;100843.40;107654;1247;71171;-78
2022/06/11 08:18:18;;;;;;;5.80;3.90;;;;;;;25.47;53.94;100842.45;107679;1246;61936;-77
2022/06/11 08:20:46;;;;;;;6.80;4.10;;;;;;;25.80;53.81;100844.11;107245;1249;59016;-79
2022/06/11 08:23:16;;;;;;;5.60;3.90;;;;;;;25.86;52.30;100842.29;107591;1246;62068;-80
2022/06/11 08:25:45;;;;;;;6.50;3.90;;;;;;;25.84;52.58;100836.80;107607;1246;71214;-77
2022/06/11 08:28:16;;;;;;;5.70;3.80;;;;;;;25.91;51.90;100832.98;108072;1246;60322;-75
2022/06/11 08:30:46;;;;;;;5.50;4.00;;;;;;;26.12;51.68;100833.27;108040;1247;63315;-80
2022/06/11 08:33:16;;;;;;;6.10;4.40;;;;;;;25.85;51.99;100841.17;107768;1247;62007;-80
2022/06/11 08:35:45;;;;;;;8.50;4.40;;;;;;;25.71;52.70;100840.08;107735;1247;58876;-79
2022/06/11 08:38:14;;;;;;;6.10;4.30;;;;;;;25.58;53.46;100835.45;107758;1248;72814;-80
2022/06/11 08:40:55;;;;;;;6.70;4.00;;;;;;;25.67;52.74;100835.63;107742;1247;62136;-81
2022/06/11 08:43:35;;;;;;;7.80;4.30;;;;;;;25.89;51.94;100834.39;107472;1248;60028;-76
2022/06/11 08:46:07;;;;;;;6.50;4.20;;;;;;;26.12;52.07;100835.25;107671;1247;63338;-82
2022/06/11 08:48:42;;;;;;;6.90;4.10;;;;;;;26.30;51.34;100839.69;107491;1249;59556;-79
2022/06/11 08:51:41;;;;;;;8.30;4.20;;;;;;;26.41;50.33;100829.24;107689;1246;61057;-79
2022/06/11 08:54:25;;;;;;;5.90;3.80;;;;;;;26.22;51.51;100823.35;107668;1247;74391;-81
2022/06/11 08:57:24;;;;;;;7.80;4.20;;;;;;;26.17;51.05;100826.71;107699;1246;61353;-81
2022/06/11 09:00:05;;;;;;;4.90;3.90;;;;;;;26.04;51.01;100828.52;107689;1248;60376;-80
2022/06/11 09:03:22;;;;;;;5.20;3.80;;;;;;;25.69;51.93;100828.00;107734;1246;62476;-77
2022/06/11 09:06:27;;;;;;;9.20;3.90;;;;;;;25.75;52.76;100827.98;107767;1248;58844;-75
2022/06/11 09:09:40;;;;;;;5.10;3.90;;;;;;;25.83;52.37;100820.94;107644;1246;60938;-73
2022/06/11 09:12:30;;;;;;;7.20;4.30;;;;;;;25.73;52.12;100818.60;107258;1251;62775;-73
2022/06/11 09:15:29;;;;;;;5.80;4.00;;;;;;;25.89;52.26;100820.93;107713;1247;72285;-75
2022/06/11 09:18:48;;;;;;;6.70;4.20;;;;;;;25.96;51.85;100822.89;107750;1246;62454;-75
2022/06/11 09:22:07;;;;;;;5.10;3.60;;;;;;;25.95;51.66;100818.70;107771;1247;62876;-75
2022/06/11 09:24:57;;;;;;;5.00;3.50;;;;;;;26.48;50.88;100819.36;107778;1247;58482;-73
2022/06/11 09:28:00;;;;;;;5.40;3.60;;;;;;;26.83;49.28;100817.39;107787;1247;59054;-74
2022/06/11 09:30:43;;;;;;;7.10;4.10;;;;;;;27.03;48.87;100815.52;107744;1247;72884;-74
2022/06/11 09:33:37;;;;;;;6.80;3.60;;;;;;;26.78;48.65;100813.54;107675;1248;61593;-76
2022/06/11 09:36:14;;;;;;;6.80;4.10;;;;;;;26.59;49.57;100817.64;107758;1246;70568;-80
2022/06/11 09:39:05;;;;;;;5.70;3.30;;;;;;;26.34;49.27;100815.63;107605;1249;73915;-76
2022/06/11 09:41:59;;;;;;;5.50;3.60;;;;;;;26.25;49.66;100810.66;107672;1246;59031;-75
2022/06/11 09:44:37;;;;;;;5.50;3.10;;;;;;;26.50;48.94;100805.50;107563;1249;59095;-76
2022/06/11 09:47:23;;;;;;;7.30;3.30;;;;;;;26.79;47.82;100800.17;107799;1249;74235;-82
2022/06/11 09:50:37;;;;;;;6.00;3.70;;;;;;;27.04;47.65;100794.56;108068;1246;61897;-80
2022/06/11 09:53:18;;;;;;;9.30;3.00;;;;;;;27.00;46.52;100795.89;107928;1250;59205;-80
2022/06/11 09:55:57;;;;;;;5.90;3.10;;;;;;;27.17;45.71;100791.67;107652;1249;73935;-80
2022/06/11 09:58:45;;;;;;;7.20;5.00;;;;;;;27.40;43.96;100786.07;107602;1248;58831;-81
2022/06/11 10:01:21;;;;;;;4.10;2.30;;;;;;;27.31;42.37;100784.88;107540;1246;57338;-83
2022/06/11 10:04:01;;;;;;;7.70;3.20;;;;;;;27.58;42.42;100778.81;107671;1249;62258;-81
2022/06/11 10:06:57;;;;;;;5.80;2.90;;;;;;;27.99;41.46;100775.02;107616;1247;61593;-78
2022/06/11 10:09:31;;;;;;;6.00;2.60;;;;;;;28.48;40.57;100768.27;107724;1246;70211;-74
2022/06/11 10:12:34;;;;;;;5.00;2.90;;;;;;;28.67;39.03;100762.06;107595;1248;74458;-75
2022/06/11 10:15:20;;;;;;;4.00;2.50;;;;;;;28.88;38.24;100751.98;107438;1247;60872;-78
2022/06/11 10:18:00;;;;;;;4.10;2.10;;;;;;;28.93;37.31;100747.19;107530;1248;59942;-79
2022/06/11 10:20:40;;;;;;;5.50;2.30;;;;;;;28.56;37.58;100740.48;107697;1247;73355;-77
2022/06/11 10:23:48;;;;;;;3.30;2.30;;;;;;;28.94;38.01;100744.40;107680;1246;61296;-74
2022/06/11 10:26:44;;;;;;;4.60;2.30;;;;;;;29.25;37.69;100743.56;107375;1248;68936;-75
2022/06/11 10:29:37;;;;;;;4.30;2.40;;;;;;;29.25;37.46;100740.30;107505;1249;74817;-75
2022/06/11 10:32:13;;;;;;;6.90;2.70;;;;;;;29.19;37.55;100736.92;107573;1248;60765;-75
2022/06/11 10:34:52;;;;;;;4.20;2.20;;;;;;;29.25;37.55;100736.63;107617;1248;60707;-74
2022/06/11 10:38:04;;;;;;;4.50;1.90;;;;;;;29.48;36.47;100729.54;107686;1247;63601;-78
2022/06/11 10:40:42;;;;;;;6.80;2.70;;;;;;;29.78;36.94;100724.48;107397;1248;72063;-78
2022/06/11 10:43:34;;;;;;;4.70;2.70;;;;;;;30.16;36.51;100725.11;107505;1248;59791;-79
2022/06/11 10:46:03;;;;;;;3.30;2.10;;;;;;;30.30;34.99;100718.70;107655;1248;64000;-77
2022/06/11 10:48:36;;;;;;;5.50;2.40;;;;;;;30.52;33.27;100717.56;107621;1248;60839;-77
2022/06/11 10:51:31;;;;;;;2.70;1.70;;;;;;;30.33;33.89;100714.88;107600;1248;59060;-76
2022/06/11 10:54:11;;;;;;;2.80;1.90;;;;;;;31.00;33.78;100718.91;107543;1247;62999;-76
2022/06/11 10:57:07;;;;;;;4.50;2.20;;;;;;;31.55;32.59;100709.06;107524;1249;71504;-78
2022/06/11 10:59:50;;;;;;;2.90;1.90;;;;;;;31.40;32.02;100703.12;107557;1247;70814;-76
2022/06/11 11:02:53;;;;;;;3.10;2.10;;;;;;;31.28;32.49;100698.73;107473;1247;63634;-78
2022/06/11 11:05:23;;;;;;;3.50;1.90;;;;;;;31.58;31.90;100693.67;107468;1247;59106;-79
2022/06/11 11:07:58;;;;;;;3.20;1.80;;;;;;;32.09;31.52;100684.78;107417;1248;57491;-77
2022/06/11 11:10:35;;;;;;;3.90;2.10;;;;;;;32.19;30.89;100686.14;107469;1247;72815;-77
2022/06/11 11:13:14;;;;;;;4.40;1.90;;;;;;;31.84;31.35;100686.28;107519;1247;71424;-78
2022/06/11 11:15:54;;;;;;;3.50;2.00;;;;;;;32.20;30.82;100683.13;107710;1247;61299;-80
2022/06/11 11:18:32;;;;;;;3.40;1.60;;;;;;;31.91;30.35;100684.08;107492;1248;63373;-79
2022/06/11 11:21:02;;;;;;;3.60;1.80;;;;;;;31.22;30.72;100681.06;107469;1247;61456;-79
2022/06/11 11:23:40;;;;;;;4.00;2.00;;;;;;;31.06;31.56;100684.33;107655;1248;61905;-76
2022/06/11 11:26:55;;;;;;;3.70;1.80;;;;;;;31.42;30.56;100680.90;107486;1249;64342;-76
2022/06/11 11:29:38;;;;;;;3.40;1.60;;;;;;;32.10;29.96;100673.74;107442;1248;61760;-76
2022/06/11 11:32:47;;;;;;;3.10;1.80;;;;;;;31.88;29.98;100672.27;107592;1247;59435;-75
2022/06/11 11:35:28;;;;;;;5.50;2.10;;;;;;;31.88;29.99;100674.13;107579;1248;73509;-79
2022/06/11 11:38:11;;;;;;;3.30;1.70;;;;;;;31.98;30.15;100681.55;107548;1250;58746;-78
2022/06/11 11:40:58;;;;;;;3.80;1.50;;;;;;;32.38;29.27;100680.70;107545;1247;61332;-74
2022/06/11 11:43:42;;;;;;;4.60;1.90;;;;;;;32.82;28.25;100683.29;107527;1248;73293;-76
2022/06/11 11:46:23;;;;;;;2.80;1.70;;;;;;;32.62;28.78;100679.97;107648;1247;71336;-75
2022/06/11 11:48:56;;;;;;;4.90;1.50;;;;;;;33.36;28.01;100681.52;107603;1247;59829;-79
2022/06/11 11:51:32;;;;;;;3.40;1.80;;;;;;;33.40;27.96;100682.45;107807;1247;63268;-79
2022/06/11 11:54:17;;;;;;;3.10;1.60;;;;;;;33.08;28.17;100676.98;107822;1248;59001;-80
2022/06/11 11:56:59;;;;;;;2.30;1.40;;;;;;;33.59;28.14;100675.23;107653;1247;61259;-76
2022/06/11 11:59:45;;;;;;;3.20;1.80;;;;;;;33.99;27.49;100675.98;107496;1247;73552;-78
2022/06/11 12:02:24;;;;;;;4.60;2.00;;;;;;;34.38;27.58;100675.15;107699;1247;72588;-77